Time;durP1;ratioP1;P1;durP2;ratioP2;P2;SDS_P1;SDS_P2;PMS_P1;PMS_P2;Temp;Humidity;BMP_temperature;BMP_pressure;BME280_temperature;BME280_humidity;BME280_pressure;Samples;Min_cycle;Max_cycle;Signal;HPM_P1;HPM_P2
2021/06/09 00:00:08;;;;;;;18.92;17.02;;;19.60;87.40;;;;;;2041609;29;20140;-72
2021/06/09 00:01:09;;;;;;;18.05;16.33;;;19.60;87.80;;;;;;2040983;29;20112;-70
2021/06/09 00:02:10;;;;;;;18.55;16.75;;;19.60;88.10;;;;;;2033798;29;20514;-70
2021/06/09 00:03:10;;;;;;;19.05;17.05;;;19.60;88.30;;;;;;2037502;29;20032;-70
2021/06/09 00:04:11;;;;;;;18.23;16.50;;;19.50;88.40;;;;;;2046975;29;20028;-71
2021/06/09 00:05:12;;;;;;;19.20;17.23;;;19.50;88.90;;;;;;2046203;29;20038;-72
2021/06/09 00:06:12;;;;;;;18.38;16.50;;;19.50;90.00;;;;;;2046898;29;20035;-70
2021/06/09 00:07:13;;;;;;;18.92;16.52;;;19.50;90.20;;;;;;2046366;29;20059;-70
2021/06/09 00:08:14;;;;;;;17.20;15.50;;;19.50;90.50;;;;;;2041620;29;20044;-70
2021/06/09 00:09:15;;;;;;;17.45;15.55;;;19.50;90.50;;;;;;2040399;29;20034;-70
2021/06/09 00:10:15;;;;;;;17.48;15.70;;;19.50;90.50;;;;;;2040570;29;20494;-71
2021/06/09 00:11:16;;;;;;;17.85;16.13;;;19.40;90.60;;;;;;2040326;29;20024;-70
2021/06/09 00:12:16;;;;;;;17.80;16.02;;;19.40;90.70;;;;;;2047526;29;20054;-70
2021/06/09 00:13:17;;;;;;;17.48;15.70;;;19.40;90.80;;;;;;2047667;29;20043;-70
2021/06/09 00:14:18;;;;;;;17.60;15.80;;;19.30;90.90;;;;;;2040283;29;20024;-70
2021/06/09 00:15:19;;;;;;;17.70;15.93;;;19.30;91.00;;;;;;2039480;29;20067;-70
2021/06/09 00:16:21;;;;;;;18.75;16.95;;;19.30;91.00;;;;;;2039171;29;20023;-70
2021/06/09 00:17:22;;;;;;;17.55;15.75;;;19.30;91.00;;;;;;2031529;29;20067;-70
2021/06/09 00:18:23;;;;;;;17.83;16.05;;;19.20;91.00;;;;;;2031838;29;20024;-70
2021/06/09 00:19:25;;;;;;;18.10;16.20;;;19.30;91.00;;;;;;2040203;29;20032;-70
2021/06/09 00:20:27;;;;;;;17.73;15.93;;;19.20;90.90;;;;;;2043547;29;20037;-70
2021/06/09 00:21:28;;;;;;;18.10;16.40;;;19.20;91.00;;;;;;2047521;29;20027;-70
2021/06/09 00:22:29;;;;;;;19.25;16.67;;;19.20;91.00;;;;;;2040228;29;20046;-70
2021/06/09 00:23:31;;;;;;;18.58;16.63;;;19.20;91.00;;;;;;2040422;29;20550;-71
2021/06/09 00:24:32;;;;;;;17.33;15.63;;;19.20;91.00;;;;;;2039505;29;20462;-71
2021/06/09 00:25:32;;;;;;;18.25;16.45;;;19.20;91.00;;;;;;2041276;29;20079;-71
2021/06/09 00:26:33;;;;;;;17.38;15.77;;;19.20;91.00;;;;;;2025784;29;20425;-69
2021/06/09 00:27:34;;;;;;;17.92;16.20;;;19.20;91.00;;;;;;2034101;29;20072;-70
2021/06/09 00:28:35;;;;;;;18.88;16.98;;;19.20;91.00;;;;;;2041160;29;20032;-71
2021/06/09 00:29:36;;;;;;;17.77;15.98;;;19.10;90.90;;;;;;2040609;29;20024;-71
2021/06/09 00:30:36;;;;;;;17.98;16.15;;;19.10;91.00;;;;;;2041468;29;20601;-72
2021/06/09 00:31:37;;;;;;;17.80;16.05;;;19.10;91.00;;;;;;2042621;29;20023;-70
2021/06/09 00:32:38;;;;;;;17.90;16.10;;;19.10;91.10;;;;;;2041342;29;20032;-71
2021/06/09 00:33:38;;;;;;;18.40;16.67;;;19.10;91.10;;;;;;2040159;29;20028;-71
2021/06/09 00:34:39;;;;;;;18.55;16.80;;;19.10;91.10;;;;;;2041304;29;20123;-69
2021/06/09 00:35:40;;;;;;;18.08;16.33;;;19.00;91.10;;;;;;2043055;29;20030;-71
2021/06/09 00:36:41;;;;;;;17.40;15.60;;;19.00;91.20;;;;;;2042082;29;20365;-71
2021/06/09 00:37:41;;;;;;;17.77;16.02;;;19.00;91.20;;;;;;2033650;29;20024;-71
2021/06/09 00:38:42;;;;;;;17.58;15.90;;;19.00;91.20;;;;;;2032611;29;20132;-70
2021/06/09 00:39:43;;;;;;;18.50;16.70;;;19.00;91.20;;;;;;2040137;29;20030;-70
2021/06/09 00:40:43;;;;;;;18.42;16.63;;;19.00;91.20;;;;;;2039997;29;20046;-70
2021/06/09 00:41:44;;;;;;;18.67;16.88;;;19.00;91.20;;;;;;2040145;29;20039;-69
2021/06/09 00:43:06;;;;;;;17.70;16.00;;;19.00;91.60;;;;;;2031481;29;20036;-69
2021/06/09 00:44:07;;;;;;;18.17;16.38;;;18.90;91.30;;;;;;2034726;29;20038;-70
2021/06/09 00:45:08;;;;;;;18.45;16.63;;;18.90;91.30;;;;;;2039352;29;20035;-70
2021/06/09 00:46:11;;;;;;;17.60;15.90;;;18.90;91.40;;;;;;2039644;29;20415;-70
2021/06/09 00:47:11;;;;;;;17.85;16.15;;;18.90;91.80;;;;;;2041306;29;20500;-70
2021/06/09 00:48:13;;;;;;;17.92;16.15;;;18.90;91.50;;;;;;2040085;29;20032;-71
2021/06/09 00:49:14;;;;;;;18.98;17.15;;;18.90;91.40;;;;;;2039455;29;20091;-70
2021/06/09 00:50:14;;;;;;;17.95;16.15;;;18.90;91.20;;;;;;2039400;29;20059;-70
2021/06/09 00:51:18;;;;;;;18.13;16.30;;;19.00;91.10;;;;;;2039176;29;20114;-70
2021/06/09 00:52:26;;;;;;;17.35;15.75;;;19.00;91.00;;;;;;2040083;29;20035;-69
2021/06/09 00:53:27;;;;;;;18.60;16.80;;;19.00;90.90;;;;;;2031729;29;20028;-70
2021/06/09 00:54:28;;;;;;;17.98;16.08;;;19.00;90.70;;;;;;2031391;29;20043;-70
2021/06/09 00:55:29;;;;;;;17.85;16.23;;;19.00;90.50;;;;;;2039820;29;20031;-70
2021/06/09 00:56:31;;;;;;;17.65;15.93;;;19.00;90.30;;;;;;2037240;29;20028;-71
2021/06/09 00:57:33;;;;;;;17.77;16.00;;;19.10;90.20;;;;;;2035324;29;20087;-71
2021/06/09 00:58:35;;;;;;;17.35;15.60;;;19.10;90.10;;;;;;2039714;29;20494;-70
2021/06/09 00:59:36;;;;;;;17.73;16.02;;;19.10;89.90;;;;;;2040373;29;20479;-71
2021/06/09 01:00:37;;;;;;;17.92;16.13;;;19.10;89.80;;;;;;2042257;29;20035;-71
2021/06/09 01:01:37;;;;;;;19.95;17.95;;;19.10;89.50;;;;;;2034423;29;20027;-70
2021/06/09 01:02:39;;;;;;;18.30;16.45;;;19.10;89.20;;;;;;2034626;29;20047;-70
2021/06/09 01:03:41;;;;;;;17.52;15.82;;;19.10;89.30;;;;;;2040311;29;20020;-68
2021/06/09 01:04:41;;;;;;;17.35;15.57;;;19.10;89.30;;;;;;2038805;29;20016;-69
2021/06/09 01:05:45;;;;;;;17.60;15.80;;;19.10;89.30;;;;;;2039665;29;20030;-68
2021/06/09 01:06:46;;;;;;;17.20;15.43;;;19.10;89.20;;;;;;2039664;29;20035;-68
2021/06/09 01:07:46;;;;;;;17.60;15.88;;;19.10;89.20;;;;;;2039494;29;20502;-68
2021/06/09 01:08:50;;;;;;;16.50;14.88;;;19.10;89.10;;;;;;2038654;29;20059;-69
2021/06/09 01:09:50;;;;;;;16.80;15.15;;;19.10;89.20;;;;;;2031123;29;20060;-69
2021/06/09 01:10:52;;;;;;;16.27;14.68;;;19.10;89.40;;;;;;2031689;29;20103;-70
2021/06/09 01:11:53;;;;;;;17.33;15.70;;;19.00;89.40;;;;;;2031637;29;20024;-71
2021/06/09 01:12:56;;;;;;;16.00;14.50;;;19.00;89.50;;;;;;2038270;29;20038;-68
2021/06/09 01:13:57;;;;;;;17.70;15.93;;;19.00;89.70;;;;;;2038875;29;20039;-70
2021/06/09 01:14:59;;;;;;;17.67;15.88;;;19.00;90.10;;;;;;2038412;29;20506;-70
2021/06/09 01:16:03;;;;;;;18.33;16.38;;;18.90;90.50;;;;;;2040074;29;20032;-70
2021/06/09 01:17:03;;;;;;;17.38;15.68;;;19.00;90.80;;;;;;2040053;29;20087;-70
2021/06/09 01:18:05;;;;;;;18.23;16.30;;;18.90;91.20;;;;;;2040081;29;20495;-70
2021/06/09 01:19:06;;;;;;;18.52;16.63;;;18.90;91.20;;;;;;2039394;29;20456;-70
2021/06/09 01:20:07;;;;;;;19.70;17.67;;;18.90;91.10;;;;;;2039245;29;20043;-70
2021/06/09 01:21:08;;;;;;;19.15;17.25;;;18.90;91.50;;;;;;2039917;29;20399;-70
2021/06/09 01:22:09;;;;;;;18.98;17.00;;;18.80;91.60;;;;;;2039970;29;20028;-70
2021/06/09 01:23:09;;;;;;;19.30;17.25;;;18.80;91.80;;;;;;2040032;29;20036;-70
2021/06/09 01:24:10;;;;;;;19.00;17.10;;;18.80;92.00;;;;;;2039532;29;20028;-70
2021/06/09 01:25:11;;;;;;;19.13;17.23;;;18.80;92.10;;;;;;2038780;29;20082;-70
2021/06/09 01:26:12;;;;;;;19.77;17.77;;;18.70;92.40;;;;;;2039994;29;20418;-70
2021/06/09 01:27:13;;;;;;;19.38;17.40;;;18.70;92.30;;;;;;2031599;29;20039;-70
2021/06/09 01:28:14;;;;;;;19.48;17.50;;;18.70;92.40;;;;;;2032468;29;20080;-70
2021/06/09 01:29:14;;;;;;;18.48;16.67;;;18.60;92.40;;;;;;2041563;29;20040;-70
2021/06/09 01:30:19;;;;;;;18.60;16.80;;;18.60;92.50;;;;;;2041922;29;20023;-70
2021/06/09 01:31:19;;;;;;;17.80;16.10;;;18.50;92.60;;;;;;2042662;29;20111;-71
2021/06/09 01:32:20;;;;;;;18.42;16.52;;;18.50;92.70;;;;;;2044102;29;20023;-69
2021/06/09 01:33:21;;;;;;;18.52;16.63;;;18.50;92.80;;;;;;2036266;29;20032;-70
2021/06/09 01:34:22;;;;;;;19.30;17.30;;;18.50;93.00;;;;;;2035993;29;20036;-70
2021/06/09 01:35:23;;;;;;;18.63;16.73;;;18.50;93.00;;;;;;2044277;29;20099;-70
2021/06/09 01:36:24;;;;;;;19.13;17.13;;;18.40;93.00;;;;;;2044702;29;20059;-71
2021/06/09 01:37:24;;;;;;;18.67;16.80;;;18.40;93.10;;;;;;2040879;29;20475;-70
2021/06/09 01:38:25;;;;;;;19.88;17.88;;;18.40;93.10;;;;;;2040899;29;20027;-70
2021/06/09 01:39:26;;;;;;;18.38;16.60;;;18.40;93.10;;;;;;2041524;29;20056;-70
2021/06/09 01:40:27;;;;;;;18.75;16.88;;;18.30;93.20;;;;;;2040865;29;20118;-69
2021/06/09 01:41:28;;;;;;;17.88;16.17;;;18.30;93.20;;;;;;2041043;29;20479;-69
2021/06/09 01:42:30;;;;;;;18.63;16.63;;;18.30;93.20;;;;;;2040981;29;20091;-69
2021/06/09 01:43:31;;;;;;;18.55;16.73;;;18.30;93.20;;;;;;2040808;29;20055;-69
2021/06/09 01:44:32;;;;;;;18.55;16.75;;;18.30;93.20;;;;;;2040256;29;20488;-70
2021/06/09 01:45:36;;;;;;;19.08;17.08;;;18.20;93.20;;;;;;2040371;29;20028;-70
2021/06/09 01:46:36;;;;;;;20.20;18.20;;;18.30;93.70;;;;;;2040447;29;20027;-70
2021/06/09 01:47:37;;;;;;;21.27;18.45;;;18.20;94.00;;;;;;2040598;29;20114;-72
2021/06/09 01:48:38;;;;;;;23.55;19.45;;;18.20;94.30;;;;;;2040757;29;20625;-69
2021/06/09 01:49:39;;;;;;;20.50;18.40;;;18.20;94.50;;;;;;2039022;29;20515;-70
2021/06/09 01:50:40;;;;;;;21.23;19.13;;;18.20;94.50;;;;;;2040854;29;20120;-70
2021/06/09 01:51:41;;;;;;;20.50;18.38;;;18.10;94.50;;;;;;2040710;29;20063;-70
2021/06/09 01:52:42;;;;;;;20.45;18.25;;;18.10;94.40;;;;;;2039324;29;20082;-69
2021/06/09 01:53:43;;;;;;;20.83;18.63;;;18.10;94.40;;;;;;2041340;29;20089;-70
2021/06/09 01:54:44;;;;;;;20.15;18.15;;;18.00;94.30;;;;;;2040442;29;20404;-70
2021/06/09 01:55:47;;;;;;;21.40;19.20;;;18.00;94.50;;;;;;2041061;29;20040;-70
2021/06/09 01:56:49;;;;;;;21.67;19.38;;;18.00;94.80;;;;;;2041262;29;20132;-69
2021/06/09 01:57:50;;;;;;;20.42;18.35;;;18.00;95.10;;;;;;2041244;29;20035;-70
2021/06/09 01:58:51;;;;;;;19.48;17.60;;;18.00;95.00;;;;;;2041208;29;20450;-69
2021/06/09 01:59:52;;;;;;;20.40;18.27;;;18.00;95.10;;;;;;2041254;29;20035;-69
2021/06/09 02:00:54;;;;;;;20.35;18.15;;;17.90;95.10;;;;;;2041449;29;20403;-69
2021/06/09 02:01:55;;;;;;;21.20;19.00;;;17.90;95.10;;;;;;2032695;29;20036;-69
2021/06/09 02:02:59;;;;;;;20.15;18.15;;;17.90;95.00;;;;;;2032735;29;20123;-69
2021/06/09 02:04:00;;;;;;;20.33;18.23;;;17.90;95.00;;;;;;2041269;29;20028;-69
2021/06/09 02:05:02;;;;;;;20.08;18.17;;;17.90;95.00;;;;;;2040480;29;20081;-69
2021/06/09 02:06:03;;;;;;;19.38;17.35;;;17.90;94.80;;;;;;2040970;29;20032;-70
2021/06/09 02:07:04;;;;;;;20.40;18.40;;;17.90;94.60;;;;;;2041029;29;20047;-69
2021/06/09 02:08:08;;;;;;;19.80;17.90;;;17.90;94.40;;;;;;2041254;29;20040;-69
2021/06/09 02:09:11;;;;;;;21.48;19.38;;;17.90;94.30;;;;;;2041177;29;20098;-69
2021/06/09 02:10:17;;;;;;;22.02;19.73;;;17.90;94.00;;;;;;2040789;29;20027;-70
2021/06/09 02:11:18;;;;;;;21.77;19.65;;;17.90;93.80;;;;;;2040727;29;20028;-70
2021/06/09 02:12:21;;;;;;;21.65;19.45;;;17.90;93.80;;;;;;2041278;29;20035;-69
2021/06/09 02:13:23;;;;;;;21.73;19.50;;;17.90;93.60;;;;;;2040519;29;20039;-70
2021/06/09 02:14:24;;;;;;;20.90;18.90;;;17.90;93.60;;;;;;2040756;29;20031;-69
2021/06/09 02:15:26;;;;;;;20.27;18.38;;;17.90;93.60;;;;;;2040347;29;20040;-69
2021/06/09 02:16:36;;;;;;;21.08;18.88;;;17.90;93.60;;;;;;2041062;29;20024;-69
2021/06/09 02:17:37;;;;;;;21.55;19.15;;;17.90;93.60;;;;;;2041239;29;20027;-69
2021/06/09 02:18:39;;;;;;;22.25;19.95;;;17.90;93.60;;;;;;2041009;29;20031;-69
2021/06/09 02:19:39;;;;;;;20.73;18.73;;;17.90;93.60;;;;;;2040456;29;20094;-69
2021/06/09 02:20:52;;;;;;;20.52;18.52;;;17.80;93.60;;;;;;2040483;29;20183;-69
2021/06/09 02:21:53;;;;;;;20.35;18.35;;;17.80;93.60;;;;;;2041183;29;20036;-69
2021/06/09 02:22:55;;;;;;;20.25;18.27;;;17.70;93.70;;;;;;2040472;29;20028;-71
2021/06/09 02:23:56;;;;;;;20.90;18.80;;;17.70;93.80;;;;;;2032451;29;20064;-69
2021/06/09 02:24:57;;;;;;;21.58;19.40;;;17.70;93.90;;;;;;2031617;29;20056;-69
2021/06/09 02:25:59;;;;;;;20.30;18.23;;;17.70;94.00;;;;;;2032393;29;20031;-70
2021/06/09 02:27:00;;;;;;;20.15;18.25;;;17.70;94.10;;;;;;2025250;29;20044;-70
2021/06/09 02:28:03;;;;;;;20.08;18.13;;;17.70;94.10;;;;;;2040413;29;20080;-69
2021/06/09 02:29:06;;;;;;;19.52;17.63;;;17.70;94.20;;;;;;2040383;29;20527;-70
2021/06/09 02:30:08;;;;;;;19.67;17.58;;;17.70;94.20;;;;;;2041005;29;20031;-70
2021/06/09 02:31:08;;;;;;;19.17;17.27;;;17.60;94.30;;;;;;2040263;29;20047;-70
2021/06/09 02:32:09;;;;;;;19.80;17.88;;;17.60;94.30;;;;;;2040160;29;20086;-70
2021/06/09 02:33:11;;;;;;;20.35;18.25;;;17.60;94.60;;;;;;2040931;29;20028;-70
2021/06/09 02:34:20;;;;;;;20.98;18.88;;;17.70;94.20;;;;;;2040929;29;20526;-70
2021/06/09 02:35:21;;;;;;;20.98;18.95;;;17.60;94.10;;;;;;2039553;29;20028;-70
2021/06/09 02:36:22;;;;;;;20.60;18.60;;;17.70;94.00;;;;;;2040325;29;20099;-70
2021/06/09 02:37:23;;;;;;;21.42;18.63;;;17.70;94.00;;;;;;2040326;29;20082;-69
2021/06/09 02:38:25;;;;;;;21.23;19.02;;;17.70;93.90;;;;;;2032533;29;20099;-71
2021/06/09 02:39:26;;;;;;;20.05;17.88;;;17.70;93.70;;;;;;2031967;29;20678;-70
2021/06/09 02:40:26;;;;;;;19.73;17.73;;;17.60;93.50;;;;;;2040516;29;20032;-70
2021/06/09 02:41:27;;;;;;;20.15;18.05;;;17.60;93.50;;;;;;2040858;29;20067;-69
2021/06/09 02:42:28;;;;;;;18.80;17.00;;;17.60;93.50;;;;;;2040859;29;20127;-69
2021/06/09 02:43:32;;;;;;;19.77;17.77;;;17.60;93.50;;;;;;2040351;29;20394;-71
2021/06/09 02:44:33;;;;;;;21.08;19.00;;;17.60;93.50;;;;;;2039437;29;20043;-70
2021/06/09 02:45:34;;;;;;;19.83;17.80;;;17.60;93.50;;;;;;2032430;29;20046;-69
2021/06/09 02:46:43;;;;;;;20.38;18.27;;;17.60;93.40;;;;;;2040154;29;20142;-70
2021/06/09 02:47:47;;;;;;;23.48;19.15;;;17.60;93.40;;;;;;2040409;29;20110;-69
2021/06/09 02:48:55;;;;;;;21.85;19.08;;;17.50;93.30;;;;;;2040851;29;20031;-69
2021/06/09 02:49:58;;;;;;;21.25;19.02;;;17.60;93.20;;;;;;2040577;29;20531;-70
2021/06/09 02:51:03;;;;;;;20.70;18.60;;;17.60;93.20;;;;;;2040896;29;20443;-70
2021/06/09 02:52:11;;;;;;;20.98;18.77;;;17.60;93.10;;;;;;2032303;29;20047;-70
2021/06/09 02:53:24;;;;;;;21.25;18.77;;;17.60;93.00;;;;;;2033305;29;20103;-70
2021/06/09 02:54:45;;;;;;;21.63;19.38;;;17.50;93.00;;;;;;2040211;29;20102;-72
2021/06/09 02:56:01;;;;;;;21.77;19.05;;;17.60;92.90;;;;;;2040214;29;20034;-69
2021/06/09 02:57:06;;;;;;;22.30;18.42;;;17.50;92.70;;;;;;2040273;29;20808;-70
2021/06/09 02:58:30;;;;;;;20.45;18.20;;;17.50;92.70;;;;;;2040613;29;20032;-70
2021/06/09 03:00:03;;;;;;;21.13;18.10;;;17.50;92.70;;;;;;2040903;29;20141;-69
2021/06/09 03:01:28;;;;;;;20.13;18.02;;;17.50;92.60;;;;;;2040460;29;20465;-69
2021/06/09 03:02:39;;;;;;;19.95;17.95;;;17.50;92.70;;;;;;2040293;29;20040;-70
2021/06/09 03:03:49;;;;;;;18.73;16.90;;;17.40;92.70;;;;;;2032561;29;20028;-69
2021/06/09 03:04:53;;;;;;;20.02;17.83;;;17.40;92.80;;;;;;2033147;29;20012;-69
2021/06/09 03:05:59;;;;;;;20.05;17.60;;;17.40;92.90;;;;;;2040960;29;20020;-69
2021/06/09 03:07:05;;;;;;;18.27;16.48;;;17.40;92.90;;;;;;2032361;29;20032;-69
2021/06/09 03:08:50;;;;;;;18.40;16.60;;;17.40;92.80;;;;;;2033375;29;20028;-70
2021/06/09 03:10:27;;;;;;;19.23;16.73;;;17.40;92.80;;;;;;2034061;29;20074;-69
2021/06/09 03:11:45;;;;;;;18.83;16.90;;;17.40;92.60;;;;;;2035074;29;20082;-69
2021/06/09 03:12:52;;;;;;;20.20;16.73;;;17.40;92.40;;;;;;2041075;29;20037;-69
2021/06/09 03:14:27;;;;;;;18.02;16.23;;;17.40;92.30;;;;;;2048922;29;20058;-69
2021/06/09 03:15:39;;;;;;;17.90;16.00;;;17.40;92.30;;;;;;2041425;28;20111;-69
2021/06/09 03:16:53;;;;;;;18.45;16.65;;;17.40;92.30;;;;;;2041265;29;20083;-70
2021/06/09 03:17:58;;;;;;;20.67;18.55;;;17.40;92.40;;;;;;2040758;29;20129;-70
2021/06/09 03:19:09;;;;;;;18.92;17.13;;;17.40;92.50;;;;;;2025148;29;20485;-69
2021/06/09 03:20:26;;;;;;;19.48;17.55;;;17.40;92.50;;;;;;2025772;29;20033;-68
2021/06/09 03:21:37;;;;;;;19.58;17.48;;;17.40;92.50;;;;;;2036606;29;20044;-69
2021/06/09 03:23:13;;;;;;;19.27;17.35;;;17.40;92.50;;;;;;2046554;29;20063;-69
2021/06/09 03:24:23;;;;;;;20.23;17.65;;;17.40;92.30;;;;;;2040560;29;20122;-69
2021/06/09 03:25:34;;;;;;;18.70;16.80;;;17.40;92.30;;;;;;2039394;29;20111;-69
2021/06/09 03:26:37;;;;;;;;;;;17.40;92.30;;;;;;2040633;29;20043;-70
2021/06/09 03:27:53;;;;;;;19.15;17.15;;;17.40;92.00;;;;;;2040676;29;19927;-69
2021/06/09 03:29:06;;;;;;;18.33;16.50;;;17.30;92.10;;;;;;2040808;29;20082;-69
2021/06/09 03:30:12;;;;;;;17.40;15.70;;;17.30;92.00;;;;;;2033585;29;20035;-69
2021/06/09 03:31:20;;;;;;;17.05;15.35;;;17.30;91.90;;;;;;2041569;29;20539;-69
2021/06/09 03:32:32;;;;;;;18.88;16.20;;;17.30;91.80;;;;;;2040107;29;20052;-69
2021/06/09 03:33:40;;;;;;;18.45;15.95;;;17.30;91.50;;;;;;2033361;29;20027;-69
2021/06/09 03:34:54;;;;;;;16.33;14.63;;;17.30;91.30;;;;;;2032111;29;20039;-70
2021/06/09 03:36:02;;;;;;;20.55;15.52;;;17.30;91.20;;;;;;2034251;29;20806;-70
2021/06/09 03:37:04;;;;;;;17.30;15.20;;;17.30;91.40;;;;;;2032869;29;20059;-70
2021/06/09 03:38:09;;;;;;;19.65;15.73;;;17.30;91.10;;;;;;2040095;29;20036;-69
2021/06/09 03:39:13;;;;;;;17.50;15.70;;;17.30;90.80;;;;;;2039869;29;20066;-70
2021/06/09 03:40:25;;;;;;;16.50;14.73;;;17.40;90.60;;;;;;2040053;29;20039;-69
2021/06/09 03:41:33;;;;;;;15.77;14.25;;;17.30;90.60;;;;;;2040630;29;20399;-69
2021/06/09 03:42:37;;;;;;;16.38;14.68;;;17.30;91.00;;;;;;2040524;29;20031;-69
2021/06/09 03:43:42;;;;;;;16.27;14.65;;;17.30;90.60;;;;;;2040287;29;20027;-69
2021/06/09 03:44:47;;;;;;;15.13;13.73;;;17.30;90.50;;;;;;2039762;29;20428;-70
2021/06/09 03:45:51;;;;;;;15.40;13.80;;;17.30;90.60;;;;;;2040619;29;20028;-69
2021/06/09 03:46:54;;;;;;;15.43;13.93;;;17.30;90.50;;;;;;2039874;29;20411;-70
2021/06/09 03:47:56;;;;;;;15.60;14.10;;;17.30;90.50;;;;;;2040011;29;20035;-72
2021/06/09 03:48:59;;;;;;;15.07;13.68;;;17.20;90.50;;;;;;2047781;29;20065;-72
2021/06/09 03:50:01;;;;;;;14.95;13.43;;;17.30;90.50;;;;;;2040460;29;20028;-69
2021/06/09 03:51:02;;;;;;;14.75;13.35;;;17.20;90.40;;;;;;2040175;29;20028;-70
2021/06/09 03:52:03;;;;;;;15.27;13.70;;;17.20;90.50;;;;;;2040622;29;20388;-70
2021/06/09 03:53:06;;;;;;;16.42;13.65;;;17.20;90.50;;;;;;2040420;29;20042;-70
2021/06/09 03:54:08;;;;;;;17.33;15.25;;;17.20;90.80;;;;;;2040402;29;20039;-69
2021/06/09 03:55:10;;;;;;;16.88;15.07;;;17.30;91.00;;;;;;2031143;29;20059;-70
2021/06/09 03:56:12;;;;;;;17.58;15.23;;;17.30;91.20;;;;;;2024290;29;20119;-69
2021/06/09 03:57:14;;;;;;;17.17;15.23;;;17.30;91.20;;;;;;2031992;29;20054;-69
2021/06/09 03:58:18;;;;;;;16.20;14.50;;;17.40;91.00;;;;;;2040370;29;20043;-70
2021/06/09 03:59:21;;;;;;;16.20;14.50;;;17.40;91.00;;;;;;2040363;29;20508;-69
2021/06/09 04:00:23;;;;;;;15.85;14.05;;;17.40;90.90;;;;;;2040222;29;20066;-70
2021/06/09 04:01:31;;;;;;;16.58;14.68;;;17.40;90.70;;;;;;2039989;29;20030;-71
2021/06/09 04:02:32;;;;;;;14.98;13.48;;;17.40;90.40;;;;;;2040323;29;20110;-70
2021/06/09 04:03:35;;;;;;;15.80;13.60;;;17.40;90.10;;;;;;2039983;29;20020;-69
2021/06/09 04:04:37;;;;;;;15.00;13.43;;;17.50;90.00;;;;;;2039097;29;20132;-70
2021/06/09 04:05:41;;;;;;;16.08;13.40;;;17.50;89.60;;;;;;2032038;29;20028;-69
2021/06/09 04:06:44;;;;;;;14.00;12.68;;;17.50;89.20;;;;;;2032619;29;20103;-70
2021/06/09 04:07:46;;;;;;;14.50;13.10;;;17.50;89.30;;;;;;2039886;29;20031;-69
2021/06/09 04:08:48;;;;;;;14.90;13.40;;;17.50;89.10;;;;;;2041352;29;20742;-71
2021/06/09 04:09:50;;;;;;;14.38;12.88;;;17.50;88.50;;;;;;2040784;29;20023;-70
2021/06/09 04:10:53;;;;;;;13.90;12.52;;;17.50;88.60;;;;;;2041433;29;20031;-70
2021/06/09 04:12:00;;;;;;;13.50;12.00;;;17.60;88.50;;;;;;2034794;29;20033;-70
2021/06/09 04:13:01;;;;;;;14.05;12.52;;;17.60;88.40;;;;;;2036189;29;20495;-70
2021/06/09 04:14:03;;;;;;;14.35;12.85;;;17.60;88.10;;;;;;2043628;29;20044;-70
2021/06/09 04:15:09;;;;;;;14.70;13.23;;;17.70;88.40;;;;;;2037001;29;20036;-70
2021/06/09 04:16:11;;;;;;;14.43;12.93;;;17.70;87.70;;;;;;2043837;29;20054;-70
2021/06/09 04:17:17;;;;;;;14.73;12.88;;;17.80;87.60;;;;;;2042961;29;20031;-70
2021/06/09 04:18:20;;;;;;;14.77;12.82;;;17.90;87.10;;;;;;2040748;29;20032;-71
2021/06/09 04:19:23;;;;;;;13.80;12.30;;;18.10;86.40;;;;;;2043433;29;20040;-71
2021/06/09 04:20:29;;;;;;;12.13;10.82;;;18.40;85.20;;;;;;2042685;29;20032;-71
2021/06/09 04:21:30;;;;;;;12.77;11.48;;;18.70;83.50;;;;;;2041299;29;20057;-71
2021/06/09 04:22:31;;;;;;;13.57;11.55;;;18.90;81.40;;;;;;2041225;29;20035;-71
2021/06/09 04:23:32;;;;;;;14.23;11.63;;;19.00;79.90;;;;;;2041697;29;20054;-72
2021/06/09 04:24:34;;;;;;;12.15;11.02;;;19.10;78.80;;;;;;2041585;29;20026;-70
2021/06/09 04:25:35;;;;;;;12.30;11.00;;;19.10;78.40;;;;;;2047800;29;20062;-70
2021/06/09 04:26:38;;;;;;;12.23;10.93;;;19.10;78.10;;;;;;2041608;29;20035;-70
2021/06/09 04:27:43;;;;;;;12.55;10.75;;;19.20;77.90;;;;;;2040334;29;20020;-70
2021/06/09 04:28:45;;;;;;;12.32;11.02;;;19.30;77.40;;;;;;2040832;29;20407;-70
2021/06/09 04:29:46;;;;;;;12.00;10.55;;;19.50;76.90;;;;;;2049627;29;20035;-71
2021/06/09 04:30:51;;;;;;;11.32;10.23;;;19.70;76.20;;;;;;2049680;29;20039;-75
2021/06/09 04:31:52;;;;;;;12.95;10.65;;;19.90;75.40;;;;;;2041930;29;20082;-71
2021/06/09 04:32:56;;;;;;;11.65;10.52;;;20.00;74.50;;;;;;2040972;29;20083;-71
2021/06/09 04:33:57;;;;;;;12.00;10.80;;;20.10;73.80;;;;;;2041866;29;20362;-71
2021/06/09 04:34:59;;;;;;;11.82;10.32;;;20.20;72.90;;;;;;2033044;29;20032;-69
2021/06/09 04:35:59;;;;;;;11.70;10.27;;;20.20;72.30;;;;;;2033449;29;20031;-70
2021/06/09 04:37:00;;;;;;;12.00;10.23;;;20.20;72.20;;;;;;2033849;29;20075;-71
2021/06/09 04:38:01;;;;;;;11.48;9.93;;;20.10;72.30;;;;;;2042127;29;20087;-70
2021/06/09 04:39:02;;;;;;;11.27;10.10;;;20.00;72.80;;;;;;2040942;29;20583;-70
2021/06/09 04:40:03;;;;;;;11.15;10.05;;;19.90;73.40;;;;;;2040894;29;20032;-70
2021/06/09 04:41:04;;;;;;;12.27;9.95;;;19.80;74.00;;;;;;2041269;29;20039;-70
2021/06/09 04:42:07;;;;;;;12.45;10.10;;;19.90;74.60;;;;;;2040550;29;20031;-69
2021/06/09 04:43:08;;;;;;;14.80;10.63;;;20.00;74.20;;;;;;2040472;29;20098;-69
2021/06/09 04:44:08;;;;;;;12.73;10.43;;;20.20;73.70;;;;;;2039611;29;20067;-69
2021/06/09 04:45:11;;;;;;;13.13;10.80;;;20.50;73.00;;;;;;2038710;29;20111;-69
2021/06/09 04:46:19;;;;;;;14.60;11.20;;;20.80;72.10;;;;;;2039541;29;20032;-69
2021/06/09 04:47:20;;;;;;;13.13;10.63;;;21.10;70.70;;;;;;2039726;29;20030;-69
2021/06/09 04:48:20;;;;;;;15.00;10.80;;;21.30;69.70;;;;;;2039268;29;20042;-70
2021/06/09 04:49:37;;;;;;;12.65;10.20;;;21.50;68.80;;;;;;2039333;29;20082;-70
2021/06/09 04:50:37;;;;;;;15.75;10.65;;;21.80;67.90;;;;;;2039737;29;20031;-70
2021/06/09 04:51:38;;;;;;;12.05;10.40;;;21.90;66.70;;;;;;2039952;29;20106;-70
2021/06/09 04:52:39;;;;;;;10.32;9.32;;;21.90;66.20;;;;;;2040049;29;20027;-70
2021/06/09 04:53:39;;;;;;;10.73;9.63;;;22.10;65.60;;;;;;2039896;29;20039;-70
2021/06/09 04:54:41;;;;;;;9.98;9.07;;;22.10;64.70;;;;;;2030701;29;20028;-71
2021/06/09 04:55:43;;;;;;;11.35;9.40;;;22.30;64.30;;;;;;2031988;29;20042;-70
2021/06/09 04:56:43;;;;;;;10.93;9.80;;;22.50;63.70;;;;;;2039845;29;20116;-71
2021/06/09 04:57:44;;;;;;;11.35;8.85;;;22.50;62.20;;;;;;2039820;29;20200;-71
2021/06/09 04:58:45;;;;;;;11.15;8.70;;;22.70;62.60;;;;;;2039931;29;20074;-69
2021/06/09 04:59:45;;;;;;;9.77;8.88;;;22.80;61.10;;;;;;2039831;29;20024;-70
2021/06/09 05:00:47;;;;;;;9.77;8.82;;;22.80;60.80;;;;;;2039936;29;20032;-69
2021/06/09 05:01:48;;;;;;;10.95;8.18;;;22.80;60.60;;;;;;2039875;29;20040;-70
2021/06/09 05:02:49;;;;;;;9.05;8.15;;;22.80;60.70;;;;;;2039002;29;20043;-70
2021/06/09 05:03:50;;;;;;;8.85;7.95;;;22.80;60.50;;;;;;2039965;29;20031;-70
2021/06/09 05:04:50;;;;;;;8.77;7.88;;;22.90;60.00;;;;;;2039073;29;20115;-70
2021/06/09 05:05:51;;;;;;;9.50;7.88;;;23.00;59.20;;;;;;2031365;29;20115;-69
2021/06/09 05:06:52;;;;;;;9.73;8.10;;;23.20;58.90;;;;;;2031560;29;20062;-70
2021/06/09 05:07:52;;;;;;;10.80;8.18;;;23.40;58.90;;;;;;2039861;29;20035;-69
2021/06/09 05:08:54;;;;;;;10.45;8.30;;;23.60;58.60;;;;;;2039864;29;20032;-69
2021/06/09 05:09:55;;;;;;;9.98;8.57;;;23.80;58.10;;;;;;2039886;29;20031;-69
2021/06/09 05:10:56;;;;;;;18.02;9.43;;;23.80;57.50;;;;;;2039261;29;20035;-70
2021/06/09 05:12:12;;;;;;;12.38;8.30;;;23.80;56.70;;;;;;2039400;29;20020;-69
2021/06/09 05:13:26;;;;;;;11.73;8.77;;;23.80;56.50;;;;;;2039966;29;20050;-69
2021/06/09 05:14:54;;;;;;;9.07;8.10;;;23.70;56.50;;;;;;2039524;29;20038;-70
2021/06/09 05:16:00;;;;;;;9.07;7.80;;;23.60;56.90;;;;;;2046934;29;20047;-69
2021/06/09 05:17:03;;;;;;;9.55;8.20;;;23.40;57.10;;;;;;2046809;29;20122;-70
2021/06/09 05:18:17;;;;;;;8.25;7.45;;;23.40;57.40;;;;;;2039573;29;20035;-70
2021/06/09 05:19:21;;;;;;;10.40;8.20;;;23.50;58.20;;;;;;2039427;29;20099;-70
2021/06/09 05:20:26;;;;;;;8.00;7.20;;;23.40;56.90;;;;;;2039939;29;20090;-70
2021/06/09 05:21:33;;;;;;;8.35;7.55;;;23.50;56.80;;;;;;2039946;29;20744;-70
2021/06/09 05:22:47;;;;;;;8.98;7.63;;;23.60;56.50;;;;;;2039378;29;20028;-70
2021/06/09 05:23:53;;;;;;;9.43;7.43;;;23.80;56.20;;;;;;2039691;29;20099;-70